Time;durP1;ratioP1;P1;durP2;ratioP2;P2;SDS_P1;SDS_P2;PMS_P1;PMS_P2;Temp;Humidity;BMP_temperature;BMP_pressure;BME280_temperature;BME280_humidity;BME280_pressure;Samples;Min_cycle;Max_cycle;Signal;HPM_P1;HPM_P2
2023/04/26 00:00:35;;;;;;;11.88;2.97;;;3.70;99.90;;;;;;12466424;28;20517;-82
2023/04/26 00:06:44;;;;;;;7.63;2.40;;;3.90;99.90;;;;;;12470143;28;20168;-82
2023/04/26 00:12:53;;;;;;;5.25;2.38;;;3.80;99.90;;;;;;12461670;28;20053;-84
2023/04/26 00:19:02;;;;;;;9.65;2.65;;;3.90;99.90;;;;;;12481266;28;20045;-83
2023/04/26 00:25:16;;;;;;;7.65;2.30;;;3.70;99.90;;;;;;12472447;28;20054;-83
2023/04/26 00:31:25;;;;;;;10.80;2.42;;;3.60;99.90;;;;;;12482504;28;20046;-83
2023/04/26 00:37:34;;;;;;;9.43;2.50;;;3.50;99.90;;;;;;12471761;28;20080;-83
2023/04/26 00:43:44;;;;;;;8.18;2.10;;;3.50;99.90;;;;;;12468161;28;20042;-83
2023/04/26 00:49:52;;;;;;;6.93;2.30;;;3.40;99.90;;;;;;12476650;28;20124;-83
2023/04/26 00:56:00;;;;;;;9.77;2.38;;;3.50;99.90;;;;;;12474434;28;20050;-83
2023/04/26 01:02:09;;;;;;;11.07;2.58;;;3.30;99.90;;;;;;12473129;28;20050;-83
2023/04/26 01:08:19;;;;;;;8.10;2.03;;;3.30;99.90;;;;;;12483290;28;20053;-83
2023/04/26 01:14:29;;;;;;;7.93;2.15;;;3.10;99.90;;;;;;12461525;28;20112;-83
2023/04/26 01:20:37;;;;;;;9.48;2.47;;;3.10;99.90;;;;;;12474415;28;20080;-82
2023/04/26 01:26:45;;;;;;;9.48;2.15;;;3.10;99.90;;;;;;12474614;28;20053;-83
2023/04/26 01:32:54;;;;;;;7.15;2.20;;;3.00;99.90;;;;;;12481958;28;20042;-82
2023/04/26 01:39:03;;;;;;;11.57;2.90;;;2.90;99.90;;;;;;12470537;28;20050;-82
2023/04/26 01:45:11;;;;;;;11.65;3.30;;;3.00;99.90;;;;;;12471617;28;20081;-83
2023/04/26 01:51:20;;;;;;;10.60;2.30;;;3.00;99.90;;;;;;12440237;28;20050;-82
2023/04/26 01:57:28;;;;;;;8.10;1.88;;;2.90;99.90;;;;;;12461896;28;20049;-81
2023/04/26 02:03:36;;;;;;;10.45;1.85;;;2.80;99.90;;;;;;12469679;28;20065;-82
2023/04/26 02:09:45;;;;;;;13.02;2.17;;;2.80;99.90;;;;;;12469468;28;20082;-82
2023/04/26 02:15:53;;;;;;;10.40;2.25;;;2.90;99.90;;;;;;12465349;28;20060;-82
2023/04/26 02:22:08;;;;;;;11.75;2.58;;;2.80;99.90;;;;;;12488848;28;20520;-81
2023/04/26 02:28:16;;;;;;;9.77;3.25;;;2.70;99.90;;;;;;12449345;28;20432;-82
2023/04/26 02:34:24;;;;;;;8.80;2.10;;;2.90;99.90;;;;;;12443175;28;20491;-82
2023/04/26 02:40:33;;;;;;;11.73;2.97;;;2.90;99.90;;;;;;12467477;28;20729;-84
2023/04/26 02:46:42;;;;;;;11.52;2.35;;;2.70;99.90;;;;;;12455918;28;20061;-83
2023/04/26 02:52:50;;;;;;;11.38;2.28;;;2.80;99.90;;;;;;12434491;28;20103;-82
2023/04/26 02:58:58;;;;;;;7.57;2.45;;;2.90;99.90;;;;;;12494138;28;20511;-82
2023/04/26 03:05:08;;;;;;;11.38;2.67;;;2.80;99.90;;;;;;12461205;28;20575;-83
2023/04/26 03:11:16;;;;;;;12.05;2.90;;;2.60;99.90;;;;;;12455876;28;20077;-82
2023/04/26 03:17:24;;;;;;;8.77;2.90;;;2.50;99.90;;;;;;12457752;28;20045;-82
2023/04/26 03:23:33;;;;;;;10.52;2.92;;;2.50;99.90;;;;;;12476389;28;20053;-82
2023/04/26 03:29:47;;;;;;;11.57;3.63;;;2.60;99.90;;;;;;12462557;28;20049;-82
2023/04/26 03:35:56;;;;;;;10.38;3.28;;;2.80;99.90;;;;;;12479250;28;20045;-82
2023/04/26 03:42:04;;;;;;;8.30;2.60;;;2.70;99.90;;;;;;12458116;28;20050;-81
2023/04/26 03:48:13;;;;;;;7.55;2.42;;;2.50;99.90;;;;;;12465914;28;20632;-82
2023/04/26 03:54:21;;;;;;;11.73;3.15;;;2.30;99.90;;;;;;12448471;28;20045;-82
2023/04/26 04:00:30;;;;;;;14.25;3.10;;;2.50;99.90;;;;;;12487139;28;20049;-82
2023/04/26 04:06:38;;;;;;;13.43;3.55;;;2.40;99.90;;;;;;12485524;28;20076;-82
2023/04/26 04:12:46;;;;;;;12.10;2.50;;;2.20;99.90;;;;;;12475220;28;20045;-82
2023/04/26 04:18:54;;;;;;;11.25;3.30;;;2.50;99.90;;;;;;12460571;28;20049;-82
2023/04/26 04:25:03;;;;;;;9.90;2.88;;;2.60;99.90;;;;;;12461352;28;20134;-82
2023/04/26 04:31:12;;;;;;;9.40;2.90;;;2.40;99.90;;;;;;12473047;28;20041;-82
2023/04/26 04:37:21;;;;;;;10.65;2.78;;;2.50;99.90;;;;;;12515601;28;20118;-81
2023/04/26 04:43:30;;;;;;;7.35;2.65;;;2.60;99.90;;;;;;12518497;28;20095;-82
2023/04/26 04:49:38;;;;;;;11.77;4.28;;;3.30;99.90;;;;;;12509791;28;20625;-82
2023/04/26 04:55:48;;;;;;;8.80;2.50;;;5.30;99.90;;;;;;12516127;28;20108;-82
2023/04/26 05:01:57;;;;;;;7.10;2.22;;;8.00;99.90;;;;;;12487942;28;20049;-82
2023/04/26 05:08:06;;;;;;;6.85;2.20;;;10.10;99.90;;;;;;12519282;28;20478;-82
2023/04/26 05:14:14;;;;;;;11.93;2.35;;;10.00;99.90;;;;;;12491665;28;20064;-82
2023/04/26 05:20:23;;;;;;;12.77;2.72;;;7.90;99.90;;;;;;12497132;28;20061;-83
2023/04/26 05:26:39;;;;;;;7.68;3.22;;;6.50;99.90;;;;;;12519093;28;20135;-83
2023/04/26 05:32:49;;;;;;;6.65;2.80;;;6.00;99.90;;;;;;12508686;28;20045;-82
2023/04/26 05:38:57;;;;;;;7.38;2.95;;;6.80;99.90;;;;;;12510365;28;20131;-82
2023/04/26 05:45:06;;;;;;;7.55;2.95;;;6.50;99.90;;;;;;12497293;28;20047;-83
2023/04/26 05:51:14;;;;;;;12.82;3.30;;;5.60;99.90;;;;;;12501112;28;20052;-82
2023/04/26 05:57:23;;;;;;;14.15;4.03;;;5.40;99.90;;;;;;12515202;28;20057;-82
2023/04/26 06:03:31;;;;;;;14.30;4.05;;;5.00;99.90;;;;;;12526211;28;20055;-82
2023/04/26 06:09:40;;;;;;;7.57;3.55;;;4.80;99.90;;;;;;12516704;28;20056;-82
2023/04/26 06:15:49;;;;;;;14.18;4.20;;;5.20;99.90;;;;;;12499101;28;20106;-82
2023/04/26 06:21:57;;;;;;;13.02;3.88;;;5.40;99.90;;;;;;12493547;28;20048;-82
2023/04/26 06:28:11;;;;;;;9.10;2.95;;;5.80;99.90;;;;;;12502687;28;20192;-82
2023/04/26 06:34:20;;;;;;;10.60;3.92;;;5.70;99.90;;;;;;12496269;28;20049;-82
2023/04/26 06:40:28;;;;;;;8.73;3.63;;;5.60;99.90;;;;;;12531528;28;20044;-83
2023/04/26 06:46:37;;;;;;;12.02;3.92;;;5.90;99.90;;;;;;12509978;28;20505;-83
2023/04/26 06:52:45;;;;;;;13.05;4.00;;;6.20;99.90;;;;;;12509431;28;20048;-83
2023/04/26 06:59:04;;;;;;;9.90;3.15;;;5.90;99.90;;;;;;12501807;28;20049;-82
2023/04/26 07:05:13;;;;;;;6.55;2.60;;;6.20;99.90;;;;;;12514181;28;20425;-82
2023/04/26 07:11:22;;;;;;;8.70;2.85;;;6.30;99.90;;;;;;12497622;28;20196;-82
2023/04/26 07:17:32;;;;;;;7.22;3.13;;;6.60;99.90;;;;;;12498030;28;20486;-82
2023/04/26 07:23:40;;;;;;;7.60;2.55;;;7.00;99.90;;;;;;12505294;28;20058;-83
2023/04/26 07:29:56;;;;;;;9.20;2.50;;;7.30;99.90;;;;;;12459160;28;20151;-82
2023/04/26 07:36:04;;;;;;;8.43;2.15;;;7.00;99.90;;;;;;12472831;28;20068;-83
2023/04/26 07:42:14;;;;;;;10.50;2.63;;;6.50;99.90;;;;;;12475679;28;20176;-83
2023/04/26 07:48:22;;;;;;;9.20;2.20;;;6.80;99.90;;;;;;12475831;28;20061;-83
2023/04/26 07:54:30;;;;;;;9.20;2.25;;;6.80;99.90;;;;;;12466212;28;20049;-83
2023/04/26 08:00:40;;;;;;;6.50;1.67;;;6.90;99.90;;;;;;12473351;28;20064;-82
2023/04/26 08:06:49;;;;;;;10.95;1.73;;;6.90;99.90;;;;;;12476703;28;20053;-84
2023/04/26 08:13:01;;;;;;;4.70;1.60;;;7.10;99.90;;;;;;12461629;28;20093;-84
2023/04/26 08:19:10;;;;;;;8.95;1.80;;;7.40;99.90;;;;;;12486814;28;20050;-82
2023/04/26 08:25:18;;;;;;;5.82;1.67;;;7.90;99.90;;;;;;12462463;28;20056;-82
2023/04/26 08:31:26;;;;;;;3.97;1.17;;;7.40;99.90;;;;;;12524618;28;20605;-83
2023/04/26 08:37:35;;;;;;;9.40;1.70;;;7.30;99.90;;;;;;12526544;28;20060;-83
2023/04/26 08:43:43;;;;;;;3.28;1.25;;;7.60;99.90;;;;;;12537094;28;20045;-83
2023/04/26 08:49:58;;;;;;;5.22;1.42;;;7.50;99.90;;;;;;12510339;28;20053;-83
2023/04/26 08:56:08;;;;;;;3.95;1.35;;;7.60;99.90;;;;;;12518350;28;20376;-83
2023/04/26 09:02:22;;;;;;;6.10;1.70;;;7.40;99.90;;;;;;12509276;28;20042;-83
2023/04/26 09:08:32;;;;;;;4.50;1.40;;;7.30;99.90;;;;;;12512035;28;20088;-83
2023/04/26 09:14:40;;;;;;;7.55;1.80;;;7.50;99.90;;;;;;12508233;28;20044;-84
2023/04/26 09:21:04;;;;;;;7.20;1.40;;;8.20;99.90;;;;;;12515365;28;20041;-84
2023/04/26 09:27:12;;;;;;;10.15;1.90;;;8.60;99.90;;;;;;12519543;28;20140;-82
2023/04/26 09:33:21;;;;;;;4.80;1.27;;;8.40;99.90;;;;;;12530177;28;20041;-83
2023/04/26 09:39:34;;;;;;;6.35;1.67;;;8.30;99.90;;;;;;12504867;28;20108;-83
2023/04/26 09:45:52;;;;;;;5.90;1.70;;;7.90;99.90;;;;;;12511242;28;20060;-84
2023/04/26 09:52:05;;;;;;;5.22;1.63;;;7.80;99.90;;;;;;12508438;28;20437;-83
2023/04/26 09:58:15;;;;;;;3.55;1.40;;;7.70;99.90;;;;;;12502521;28;20130;-83
2023/04/26 10:04:23;;;;;;;7.20;1.55;;;7.60;99.90;;;;;;12527259;28;20116;-83
2023/04/26 10:10:31;;;;;;;5.68;1.38;;;8.00;99.90;;;;;;12504063;28;20053;-83
2023/04/26 10:16:50;;;;;;;6.32;1.52;;;8.20;99.90;;;;;;12517095;28;20517;-83
2023/04/26 10:23:00;;;;;;;3.35;1.10;;;8.30;99.90;;;;;;12513758;28;20389;-82
2023/04/26 10:29:16;;;;;;;5.90;1.58;;;8.70;99.90;;;;;;12487158;28;20132;-84
2023/04/26 10:35:29;;;;;;;4.80;1.25;;;9.30;99.90;;;;;;12505518;28;20068;-83
2023/04/26 10:41:38;;;;;;;4.70;1.52;;;9.50;99.90;;;;;;12531091;28;20117;-83
2023/04/26 10:47:48;;;;;;;4.03;1.20;;;9.50;99.90;;;;;;12496965;28;20052;-83
2023/04/26 10:53:57;;;;;;;6.85;1.55;;;9.90;99.90;;;;;;12522019;28;20068;-84
2023/04/26 11:00:15;;;;;;;6.93;1.73;;;9.50;99.90;;;;;;12518210;28;20052;-83
2023/04/26 11:06:28;;;;;;;5.63;1.50;;;9.30;99.90;;;;;;12570815;28;20063;-83
2023/04/26 11:12:40;;;;;;;4.60;1.73;;;8.80;99.90;;;;;;12561412;28;20036;-83
2023/04/26 11:18:48;;;;;;;6.38;1.95;;;8.50;99.90;;;;;;12573899;28;20080;-84
2023/04/26 11:24:59;;;;;;;11.35;2.05;;;8.60;99.90;;;;;;12519993;28;20108;-82
2023/04/26 11:31:13;;;;;;;7.75;2.05;;;8.90;99.90;;;;;;12475064;28;20050;-84
2023/04/26 11:37:23;;;;;;;4.72;1.77;;;9.20;99.90;;;;;;12468626;28;20046;-82
2023/04/26 11:43:31;;;;;;;4.82;1.80;;;9.00;99.90;;;;;;12465581;28;20075;-83
2023/04/26 11:49:39;;;;;;;7.03;1.67;;;8.80;99.90;;;;;;12482607;28;20486;-82
2023/04/26 11:55:48;;;;;;;6.15;1.80;;;9.60;99.90;;;;;;12461547;28;20052;-82
2023/04/26 12:01:57;;;;;;;4.55;1.80;;;9.20;99.90;;;;;;12471447;28;20099;-84
2023/04/26 12:08:09;;;;;;;2.92;1.75;;;9.20;99.90;;;;;;12466282;28;20140;-83
2023/04/26 12:14:17;;;;;;;6.35;1.52;;;9.70;99.90;;;;;;12453010;28;20460;-84
2023/04/26 12:20:36;;;;;;;5.90;1.70;;;9.30;99.90;;;;;;12462356;28;20457;-83
2023/04/26 12:26:44;;;;;;;6.78;1.90;;;9.00;99.90;;;;;;12478050;28;20135;-83
2023/04/26 12:32:59;;;;;;;6.57;1.88;;;8.90;99.90;;;;;;12511274;28;20408;-84
2023/04/26 12:39:24;;;;;;;3.15;1.98;;;8.80;99.90;;;;;;12532837;28;20118;-83
2023/04/26 12:45:32;;;;;;;5.22;1.83;;;8.90;99.90;;;;;;12510609;28;20052;-83
2023/04/26 12:51:40;;;;;;;5.82;1.85;;;9.00;99.90;;;;;;12498836;28;20216;-83
2023/04/26 12:57:48;;;;;;;4.93;2.00;;;9.60;99.90;;;;;;12494768;28;20057;-83
2023/04/26 13:03:58;;;;;;;5.50;1.98;;;9.70;99.90;;;;;;12505337;28;20088;-84
2023/04/26 13:10:09;;;;;;;4.05;2.25;;;9.90;99.90;;;;;;12502469;28;20132;-84
2023/04/26 13:16:17;;;;;;;5.60;2.00;;;9.40;99.90;;;;;;12500616;28;20049;-83
2023/04/26 13:22:41;;;;;;;5.70;2.00;;;9.40;99.90;;;;;;12507863;28;20050;-83
2023/04/26 13:28:56;;;;;;;5.30;2.15;;;9.20;99.90;;;;;;12499471;28;20077;-82
2023/04/26 13:35:06;;;;;;;6.32;2.42;;;9.50;99.90;;;;;;12509017;28;20132;-84
2023/04/26 13:41:15;;;;;;;4.82;1.77;;;9.90;99.90;;;;;;12494015;28;20041;-83
2023/04/26 13:47:23;;;;;;;4.53;1.70;;;10.30;99.90;;;;;;12488729;28;20057;-83
2023/04/26 13:53:31;;;;;;;3.30;1.58;;;9.80;99.90;;;;;;12505074;28;20873;-83
2023/04/26 13:59:41;;;;;;;5.20;1.95;;;9.70;99.90;;;;;;12497838;28;20054;-83
2023/04/26 14:05:49;;;;;;;4.72;1.73;;;9.40;99.90;;;;;;12513613;28;20531;-83
2023/04/26 14:11:57;;;;;;;4.68;1.75;;;9.30;99.90;;;;;;12511945;28;20525;-84
2023/04/26 14:18:10;;;;;;;8.02;2.15;;;9.20;99.90;;;;;;12529834;28;20473;-84
2023/04/26 14:24:18;;;;;;;6.28;2.03;;;9.40;99.90;;;;;;12528502;28;20055;-84
2023/04/26 14:30:35;;;;;;;5.55;1.80;;;9.30;99.90;;;;;;12523454;28;21049;-83
2023/04/26 14:36:43;;;;;;;6.70;2.08;;;9.00;99.90;;;;;;12522580;28;20107;-82
2023/04/26 14:42:54;;;;;;;5.72;2.92;;;9.00;99.90;;;;;;12495873;28;20045;-84
2023/04/26 14:49:02;;;;;;;6.60;2.30;;;9.00;99.90;;;;;;12533676;28;20580;-84
2023/04/26 14:55:16;;;;;;;4.25;2.50;;;8.80;99.90;;;;;;12501961;28;20046;-84
2023/04/26 15:01:24;;;;;;;4.97;2.07;;;8.90;99.90;;;;;;12504599;28;20049;-84
2023/04/26 15:07:33;;;;;;;7.22;2.05;;;8.70;99.90;;;;;;12504938;28;20192;-84
2023/04/26 15:13:42;;;;;;;6.38;2.38;;;8.60;99.90;;;;;;12510153;28;20040;-84
2023/04/26 15:19:50;;;;;;;5.53;1.98;;;8.70;99.90;;;;;;12520362;28;20049;-84
2023/04/26 15:26:02;;;;;;;6.65;1.85;;;8.60;99.90;;;;;;12501210;28;20103;-84
2023/04/26 15:32:17;;;;;;;7.50;2.00;;;8.70;99.90;;;;;;12515645;28;20099;-84
2023/04/26 15:38:25;;;;;;;6.22;2.33;;;8.70;99.90;;;;;;12499439;28;20052;-85
2023/04/26 15:44:33;;;;;;;6.63;2.65;;;8.70;99.90;;;;;;12500457;28;20409;-84
2023/04/26 15:50:42;;;;;;;4.78;2.30;;;8.70;99.90;;;;;;12518323;28;20061;-84
2023/04/26 15:56:50;;;;;;;5.45;2.55;;;8.60;99.90;;;;;;12526872;28;20060;-84
2023/04/26 16:02:58;;;;;;;5.57;2.40;;;8.90;99.90;;;;;;12520733;28;20076;-84
2023/04/26 16:09:07;;;;;;;6.47;2.75;;;10.00;99.90;;;;;;12521485;28;20056;-84
2023/04/26 16:15:26;;;;;;;4.78;2.60;;;10.00;99.90;;;;;;12532832;28;20052;-84
2023/04/26 16:21:34;;;;;;;5.35;2.63;;;9.50;99.90;;;;;;12511755;28;20050;-84
2023/04/26 16:27:43;;;;;;;6.70;3.33;;;8.90;99.90;;;;;;12531834;28;20077;-84
2023/04/26 16:33:51;;;;;;;8.68;3.97;;;8.90;99.90;;;;;;12525607;28;20045;-84
2023/04/26 16:39:59;;;;;;;4.57;2.63;;;8.60;99.90;;;;;;12518636;28;20059;-85
2023/04/26 16:46:08;;;;;;;8.25;3.00;;;8.50;99.90;;;;;;12514574;28;20485;-84
2023/04/26 16:52:17;;;;;;;8.55;3.08;;;8.20;99.90;;;;;;12510194;28;20072;-84
2023/04/26 16:58:25;;;;;;;8.20;2.83;;;8.00;99.90;;;;;;12512422;28;20057;-85
2023/04/26 17:04:33;;;;;;;5.63;3.10;;;7.80;99.90;;;;;;12507721;28;20065;-84
2023/04/26 17:10:42;;;;;;;6.47;3.15;;;7.80;99.90;;;;;;12520230;28;20041;-84
2023/04/26 17:16:51;;;;;;;12.50;5.50;;;7.90;99.90;;;;;;12526986;28;20044;-84
2023/04/26 17:23:00;;;;;;;5.60;3.20;;;7.90;99.90;;;;;;12507860;28;20048;-84
2023/04/26 17:29:09;;;;;;;8.10;2.95;;;7.80;99.90;;;;;;12513781;28;20049;-84
2023/04/26 17:35:18;;;;;;;5.82;3.00;;;7.80;99.90;;;;;;12514630;28;20140;-84
2023/04/26 17:41:27;;;;;;;7.53;3.08;;;7.90;99.90;;;;;;12522666;28;20046;-84
2023/04/26 17:47:35;;;;;;;4.72;2.33;;;7.90;99.90;;;;;;12504891;28;20132;-84
2023/04/26 17:53:43;;;;;;;5.53;2.70;;;8.00;99.90;;;;;;12506652;28;20049;-83
2023/04/26 17:59:52;;;;;;;6.18;2.65;;;7.70;99.90;;;;;;12504429;28;20121;-84
2023/04/26 18:06:00;;;;;;;7.03;2.72;;;7.70;99.90;;;;;;12506954;28;20045;-84
2023/04/26 18:12:08;;;;;;;4.97;2.63;;;7.60;99.90;;;;;;12518836;28;20140;-84
2023/04/26 18:18:16;;;;;;;8.98;2.70;;;7.60;99.90;;;;;;12528519;28;20115;-82
2023/04/26 18:24:28;;;;;;;8.30;3.40;;;7.60;99.90;;;;;;12505879;28;20045;-81
2023/04/26 18:30:42;;;;;;;7.65;2.70;;;7.50;99.90;;;;;;12477392;28;20061;-82
2023/04/26 18:36:51;;;;;;;9.90;3.33;;;7.50;99.90;;;;;;12467432;28;20056;-83
2023/04/26 18:42:59;;;;;;;5.30;2.80;;;7.50;99.90;;;;;;12462824;28;20076;-83
2023/04/26 18:49:08;;;;;;;7.43;2.85;;;7.30;99.90;;;;;;12467424;28;20132;-83
2023/04/26 18:55:16;;;;;;;8.02;2.80;;;7.30;99.90;;;;;;12459291;28;20085;-83
2023/04/26 19:01:24;;;;;;;6.40;2.67;;;7.30;99.90;;;;;;12470431;28;20125;-82
2023/04/26 19:07:32;;;;;;;6.88;2.75;;;7.20;99.90;;;;;;12486365;28;20501;-83
2023/04/26 19:13:40;;;;;;;6.68;2.80;;;7.20;99.90;;;;;;12487757;28;20045;-83
2023/04/26 19:19:53;;;;;;;8.93;3.13;;;7.00;99.90;;;;;;12465841;28;20418;-83
2023/04/26 19:26:08;;;;;;;5.97;3.13;;;7.00;99.90;;;;;;12480044;28;20042;-83
2023/04/26 19:32:23;;;;;;;10.13;3.60;;;7.10;99.90;;;;;;12559419;28;20037;-83
2023/04/26 19:38:31;;;;;;;10.75;4.47;;;7.20;99.90;;;;;;12568106;28;20045;-82
2023/04/26 19:44:39;;;;;;;6.32;3.47;;;6.90;99.90;;;;;;12567755;28;20069;-83
2023/04/26 19:50:54;;;;;;;8.55;3.80;;;6.80;99.90;;;;;;12560387;28;20045;-84
2023/04/26 19:57:03;;;;;;;8.82;3.35;;;6.90;99.90;;;;;;12578724;28;20049;-84
2023/04/26 20:03:12;;;;;;;8.45;3.85;;;6.90;99.90;;;;;;12550929;28;20753;-84
2023/04/26 20:09:20;;;;;;;9.95;3.20;;;6.90;99.90;;;;;;12567149;28;20087;-84
2023/04/26 20:15:29;;;;;;;7.78;3.78;;;6.80;99.90;;;;;;12564132;28;20079;-83
2023/04/26 20:21:37;;;;;;;7.65;3.72;;;6.80;99.90;;;;;;12553028;28;20057;-83
2023/04/26 20:27:46;;;;;;;7.60;4.00;;;6.80;99.90;;;;;;12543217;28;20084;-83
2023/04/26 20:34:01;;;;;;;8.65;3.55;;;6.70;99.90;;;;;;12540100;28;20125;-83
2023/04/26 20:40:09;;;;;;;4.93;3.42;;;6.70;99.90;;;;;;12544098;28;20049;-82
2023/04/26 20:46:18;;;;;;;8.55;3.83;;;6.70;99.90;;;;;;12555137;28;20053;-83
2023/04/26 20:52:26;;;;;;;9.23;3.63;;;6.60;99.90;;;;;;12525902;28;20531;-83
2023/04/26 20:58:34;;;;;;;7.57;3.55;;;6.60;99.90;;;;;;12506431;28;20060;-82
2023/04/26 21:04:43;;;;;;;7.70;3.70;;;6.70;99.90;;;;;;12537367;28;20076;-83
2023/04/26 21:10:51;;;;;;;6.38;4.05;;;6.60;99.90;;;;;;12543107;28;20118;-83
2023/04/26 21:17:04;;;;;;;10.05;4.47;;;6.60;99.90;;;;;;12552556;28;20056;-83
2023/04/26 21:23:12;;;;;;;9.15;4.03;;;6.50;99.90;;;;;;12539106;28;20068;-83
2023/04/26 21:29:20;;;;;;;10.82;4.57;;;6.50;99.90;;;;;;12533117;28;20116;-83
2023/04/26 21:35:28;;;;;;;6.38;3.60;;;6.40;99.90;;;;;;12522967;28;20140;-83
2023/04/26 21:41:36;;;;;;;7.47;4.10;;;6.40;99.90;;;;;;12517638;28;20057;-83
2023/04/26 21:47:44;;;;;;;11.18;4.15;;;6.30;99.90;;;;;;12538175;28;20072;-83
2023/04/26 21:53:52;;;;;;;8.32;4.15;;;6.40;99.90;;;;;;12516534;28;20054;-83
2023/04/26 22:00:00;;;;;;;9.20;4.10;;;6.30;99.90;;;;;;12521826;28;20135;-83
2023/04/26 22:06:09;;;;;;;6.53;3.67;;;6.40;99.90;;;;;;12536766;28;20478;-83
2023/04/26 22:12:17;;;;;;;7.72;4.28;;;6.40;99.90;;;;;;12525507;28;20249;-83
2023/04/26 22:18:25;;;;;;;12.57;4.47;;;6.30;99.90;;;;;;12518880;28;20436;-82
2023/04/26 22:24:34;;;;;;;8.93;4.20;;;6.20;99.90;;;;;;12528056;28;20079;-82
2023/04/26 22:30:42;;;;;;;7.65;4.32;;;6.40;99.90;;;;;;12528111;28;20052;-82
2023/04/26 22:36:50;;;;;;;8.20;4.25;;;6.40;99.90;;;;;;12501763;28;20135;-83
2023/04/26 22:43:14;;;;;;;9.20;4.80;;;6.40;99.90;;;;;;12499290;28;20042;-82
2023/04/26 22:49:22;;;;;;;7.45;4.60;;;6.50;99.90;;;;;;12535494;28;20171;-83
2023/04/26 22:55:31;;;;;;;7.80;4.70;;;6.40;99.90;;;;;;12505919;28;20117;-83
2023/04/26 23:01:39;;;;;;;10.40;4.72;;;6.50;99.90;;;;;;12513924;28;20083;-83
2023/04/26 23:07:47;;;;;;;9.48;4.90;;;6.60;99.90;;;;;;12521935;28;20056;-82
2023/04/26 23:13:58;;;;;;;11.27;5.28;;;6.50;99.90;;;;;;12542716;28;20059;-83
2023/04/26 23:20:14;;;;;;;11.13;5.38;;;6.50;99.90;;;;;;12530392;28;20059;-83
2023/04/26 23:26:22;;;;;;;10.45;5.72;;;6.40;99.90;;;;;;12525552;28;20072;-83
2023/04/26 23:32:36;;;;;;;10.40;4.80;;;6.40;99.90;;;;;;12554134;28;20148;-82
2023/04/26 23:38:45;;;;;;;7.75;4.60;;;6.40;99.90;;;;;;12578476;28;20045;-82
2023/04/26 23:44:53;;;;;;;10.50;4.22;;;6.10;99.90;;;;;;12552751;28;20058;-83
2023/04/26 23:51:03;;;;;;;8.10;4.57;;;6.00;99.90;;;;;;12523231;28;20470;-83
2023/04/26 23:57:11;;;;;;;12.10;4.25;;;6.00;99.90;;;;;;12512985;28;20049;-82
